createdAt,value
2023-05-14T00:01:20.097Z,7.94
2023-05-14T00:03:48.033Z,7.93
2023-05-14T00:06:16.146Z,7.93
2023-05-14T00:08:44.479Z,7.92
2023-05-14T00:11:12.643Z,7.90
2023-05-14T00:13:40.581Z,7.90
2023-05-14T00:16:08.452Z,7.92
2023-05-14T00:18:36.492Z,7.94
2023-05-14T00:21:04.562Z,7.97
2023-05-14T00:23:32.477Z,7.98
2023-05-14T00:26:00.378Z,7.97
2023-05-14T00:28:28.229Z,7.92
2023-05-14T00:30:57.228Z,7.90
2023-05-14T00:33:25.268Z,7.90
2023-05-14T00:35:53.288Z,7.90
2023-05-14T00:38:21.261Z,7.94
2023-05-14T00:40:52.107Z,8.03
2023-05-14T00:43:21.711Z,8.10
2023-05-14T00:45:52.070Z,8.16
2023-05-14T00:48:21.319Z,8.18
2023-05-14T00:50:51.347Z,8.16
2023-05-14T00:53:20.720Z,8.17
2023-05-14T00:55:50.348Z,8.14
2023-05-14T00:58:18.973Z,8.12
2023-05-14T01:00:47.216Z,8.09
2023-05-14T01:03:15.195Z,8.03
2023-05-14T01:05:52.369Z,7.95
2023-05-14T01:08:41.546Z,7.85
2023-05-14T01:11:09.418Z,7.74
2023-05-14T01:13:57.520Z,7.65
2023-05-14T01:16:28.175Z,7.58
2023-05-14T01:18:58.260Z,7.54
2023-05-14T01:21:38.451Z,7.48
2023-05-14T01:24:08.566Z,7.42
2023-05-14T01:26:37.525Z,7.35
2023-05-14T01:29:26.420Z,7.26
2023-05-14T01:31:57.617Z,7.16
2023-05-14T01:34:29.117Z,7.06
2023-05-14T01:36:57.866Z,6.97
2023-05-14T01:39:27.412Z,6.91
2023-05-14T01:41:55.818Z,6.84
2023-05-14T01:44:24.701Z,6.81
2023-05-14T01:46:53.180Z,6.79
2023-05-14T01:49:21.435Z,6.75
2023-05-14T01:51:49.343Z,6.69
2023-05-14T01:54:17.222Z,6.64
2023-05-14T01:56:45.182Z,6.60
2023-05-14T01:59:13.134Z,6.59
2023-05-14T02:01:41.327Z,6.59
2023-05-14T02:04:09.943Z,6.60
2023-05-14T02:06:37.839Z,6.57
2023-05-14T02:09:06.007Z,6.52
2023-05-14T02:11:33.917Z,6.46
2023-05-14T02:14:01.840Z,6.44
2023-05-14T02:16:29.821Z,6.41
2023-05-14T02:18:57.758Z,6.36
2023-05-14T02:21:25.726Z,6.35
2023-05-14T02:23:53.645Z,6.32
2023-05-14T02:26:21.682Z,6.27
2023-05-14T02:28:49.707Z,6.25
2023-05-14T02:31:19.574Z,6.20
2023-05-14T02:33:47.579Z,6.15
2023-05-14T02:36:15.808Z,6.13
2023-05-14T02:38:43.740Z,6.13
2023-05-14T02:41:11.618Z,6.16
2023-05-14T02:43:39.762Z,6.17
2023-05-14T02:46:07.714Z,6.15
2023-05-14T02:48:35.595Z,6.15
2023-05-14T02:51:03.661Z,6.18
2023-05-14T02:53:31.605Z,6.24
2023-05-14T02:55:59.534Z,6.32
2023-05-14T02:58:28.444Z,6.42
2023-05-14T03:00:57.134Z,6.51
2023-05-14T03:03:25.853Z,6.57
2023-05-14T03:05:54.302Z,6.60
2023-05-14T03:08:22.299Z,6.62
2023-05-14T03:10:50.304Z,6.64
2023-05-14T03:13:20.172Z,6.66
2023-05-14T03:15:48.780Z,6.68
2023-05-14T03:18:16.745Z,6.68
2023-05-14T03:20:44.637Z,6.68
2023-05-14T03:23:12.998Z,6.70
2023-05-14T03:25:41.397Z,6.74
2023-05-14T03:28:09.875Z,6.79
2023-05-14T03:30:37.890Z,6.84
2023-05-14T03:33:06.178Z,6.92
2023-05-14T03:35:34.244Z,7.02
2023-05-14T03:38:02.115Z,7.08
2023-05-14T03:40:30.411Z,7.11
2023-05-14T03:42:58.401Z,7.15
2023-05-14T03:45:28.729Z,7.16
2023-05-14T03:47:56.650Z,7.15
2023-05-14T03:50:25.843Z,7.18
2023-05-14T03:52:55.126Z,7.23
2023-05-14T03:55:23.170Z,7.29
2023-05-14T03:57:51.082Z,7.34
2023-05-14T04:00:19.314Z,7.38
2023-05-14T04:02:47.251Z,7.40
2023-05-14T04:05:15.392Z,7.41
2023-05-14T04:07:43.375Z,7.42
2023-05-14T04:10:11.516Z,7.48
2023-05-14T04:12:39.418Z,7.58
2023-05-14T04:15:08.183Z,7.67
2023-05-14T04:17:36.932Z,7.71
2023-05-14T04:20:05.447Z,7.74
2023-05-14T04:22:33.396Z,7.76
2023-05-14T04:25:01.381Z,7.79
2023-05-14T04:27:29.364Z,7.86
2023-05-14T04:29:57.399Z,7.90
2023-05-14T04:32:25.864Z,7.95
2023-05-14T04:34:53.781Z,8.01
2023-05-14T04:37:21.783Z,8.11
2023-05-14T04:39:49.701Z,8.22
2023-05-14T04:42:17.562Z,8.34
2023-05-14T04:44:45.442Z,8.46
2023-05-14T04:47:13.408Z,8.54
2023-05-14T04:49:41.348Z,8.61
2023-05-14T04:52:09.418Z,8.69
2023-05-14T04:54:37.434Z,8.75
2023-05-14T04:57:05.600Z,8.82
2023-05-14T04:59:33.506Z,8.95
2023-05-14T05:02:01.423Z,9.07
2023-05-14T05:04:29.495Z,9.18
2023-05-14T05:06:57.443Z,9.29
2023-05-14T05:09:25.391Z,9.40
2023-05-14T05:11:53.256Z,9.50
2023-05-14T05:14:21.316Z,9.58
2023-05-14T05:16:49.683Z,9.66
2023-05-14T05:19:17.680Z,9.74
2023-05-14T05:21:45.730Z,9.83
2023-05-14T05:24:13.875Z,9.94
2023-05-14T05:26:41.804Z,10.07
2023-05-14T05:29:09.635Z,10.17
2023-05-14T05:31:37.725Z,10.28
2023-05-14T05:34:06.051Z,10.34
2023-05-14T05:36:33.924Z,10.39
2023-05-14T05:39:01.893Z,10.43
2023-05-14T05:41:30.395Z,10.53
2023-05-14T05:43:58.370Z,10.65
2023-05-14T05:46:26.266Z,10.76
2023-05-14T05:48:54.172Z,10.83
2023-05-14T05:51:22.119Z,10.89
2023-05-14T05:53:50.112Z,10.94
2023-05-14T05:56:18.019Z,10.99
2023-05-14T05:58:45.906Z,11.02
2023-05-14T06:01:13.855Z,11.12
2023-05-14T06:03:42.023Z,11.23
2023-05-14T06:06:10.015Z,11.34
2023-05-14T06:08:37.994Z,11.44
2023-05-14T06:11:05.895Z,11.54
2023-05-14T06:13:33.909Z,11.61
2023-05-14T06:16:02.104Z,11.67
2023-05-14T06:18:30.194Z,11.81
2023-05-14T06:21:00.240Z,11.96
2023-05-14T06:23:28.303Z,12.10
2023-05-14T06:25:56.153Z,12.29
2023-05-14T06:28:24.074Z,12.45
2023-05-14T06:30:54.162Z,12.50
2023-05-14T06:33:29.768Z,12.60
2023-05-14T06:36:04.039Z,12.70
2023-05-14T06:38:32.013Z,12.81
2023-05-14T06:40:59.950Z,12.97
2023-05-14T06:43:28.662Z,13.07
2023-05-14T06:45:56.566Z,13.30
2023-05-14T06:48:24.571Z,13.38
2023-05-14T06:50:52.538Z,13.53
2023-05-14T06:53:20.536Z,13.67
2023-05-14T06:55:48.839Z,13.79
2023-05-14T06:58:16.745Z,13.91
2023-05-14T07:00:44.687Z,14.03
2023-05-14T07:03:12.639Z,14.16
2023-05-14T07:05:41.409Z,14.28
2023-05-14T07:08:09.418Z,14.37
2023-05-14T07:10:37.756Z,14.41
2023-05-14T07:13:06.143Z,14.50
2023-05-14T07:15:34.380Z,14.60
2023-05-14T07:18:02.374Z,14.73
2023-05-14T07:20:30.384Z,14.82
2023-05-14T07:22:58.318Z,14.90
2023-05-14T07:25:26.255Z,15.08
2023-05-14T07:27:54.140Z,15.25
2023-05-14T07:30:22.753Z,15.35
2023-05-14T07:32:50.906Z,15.41
2023-05-14T07:35:18.818Z,15.49
2023-05-14T07:37:46.927Z,15.51
2023-05-14T07:40:14.963Z,15.52
2023-05-14T07:42:43.206Z,15.57
2023-05-14T07:45:11.222Z,15.65
2023-05-14T07:47:39.736Z,15.77
2023-05-14T07:50:08.250Z,15.86
2023-05-14T07:52:36.141Z,15.91
2023-05-14T07:55:04.448Z,15.97
2023-05-14T07:57:32.500Z,16.15
2023-05-14T08:00:00.712Z,16.26
2023-05-14T08:02:28.790Z,16.32
2023-05-14T08:04:56.797Z,16.31
2023-05-14T08:07:24.822Z,16.36
2023-05-14T08:09:52.754Z,16.41
2023-05-14T08:12:20.876Z,16.51
2023-05-14T08:14:48.860Z,16.63
2023-05-14T08:17:16.843Z,16.76
2023-05-14T08:19:44.902Z,16.92
2023-05-14T08:22:13.010Z,17.05
2023-05-14T08:24:42.930Z,17.18
2023-05-14T08:27:10.844Z,17.28
2023-05-14T08:29:38.736Z,17.37
2023-05-14T08:32:19.295Z,17.42
2023-05-14T08:34:51.997Z,17.42
2023-05-14T08:37:20.161Z,17.43
2023-05-14T08:39:48.022Z,17.53
2023-05-14T08:42:21.855Z,17.62
2023-05-14T08:44:53.695Z,17.75
2023-05-14T08:47:22.737Z,17.70
2023-05-14T08:50:02.426Z,17.71
2023-05-14T08:52:31.180Z,17.84
2023-05-14T08:55:01.235Z,17.86
2023-05-14T08:57:31.840Z,18.03
2023-05-14T09:00:00.470Z,18.18
2023-05-14T09:02:31.331Z,18.31
2023-05-14T09:05:01.562Z,18.41
2023-05-14T09:07:29.599Z,18.53
2023-05-14T09:09:57.503Z,18.66
2023-05-14T09:12:25.664Z,18.79
2023-05-14T09:14:53.615Z,18.82
2023-05-14T09:17:21.594Z,18.86
2023-05-14T09:19:49.545Z,18.98
2023-05-14T09:22:18.289Z,19.04
2023-05-14T09:24:46.503Z,19.13
2023-05-14T09:27:21.567Z,19.30
2023-05-14T09:29:49.493Z,19.42
2023-05-14T09:32:17.974Z,19.47
2023-05-14T09:34:47.874Z,19.44
2023-05-14T09:37:15.812Z,19.46
2023-05-14T09:39:43.728Z,19.56
2023-05-14T09:42:11.707Z,19.52
2023-05-14T09:44:39.724Z,19.63
2023-05-14T09:47:08.191Z,19.70
2023-05-14T09:49:36.072Z,19.75
2023-05-14T09:52:06.679Z,19.90
2023-05-14T09:54:34.972Z,20.05
2023-05-14T09:57:02.907Z,20.07
2023-05-14T09:59:30.772Z,20.16
2023-05-14T10:01:59.658Z,20.21
2023-05-14T10:04:27.592Z,20.20
2023-05-14T10:06:56.690Z,20.26
2023-05-14T10:09:28.024Z,20.21
2023-05-14T10:11:59.395Z,20.17
2023-05-14T10:14:35.863Z,20.27
2023-05-14T10:17:06.614Z,20.42
2023-05-14T10:19:37.384Z,20.47
2023-05-14T10:22:08.172Z,20.51
2023-05-14T10:24:38.952Z,20.68
2023-05-14T10:27:07.098Z,20.71
2023-05-14T10:29:37.606Z,20.78
2023-05-14T10:32:07.722Z,20.80
2023-05-14T10:34:41.334Z,20.75
2023-05-14T10:37:22.209Z,20.72
2023-05-14T10:39:54.922Z,20.80
2023-05-14T10:42:26.092Z,20.83
2023-05-14T10:45:02.472Z,20.74
2023-05-14T10:47:32.089Z,20.77
2023-05-14T10:50:05.740Z,20.96
2023-05-14T10:52:35.294Z,21.10
2023-05-14T10:55:10.214Z,21.13
2023-05-14T10:57:41.981Z,21.14
2023-05-14T11:00:12.925Z,21.07
2023-05-14T11:02:43.038Z,21.05
2023-05-14T11:05:14.330Z,21.11
2023-05-14T11:07:44.824Z,21.25
2023-05-14T11:10:22.100Z,21.34
2023-05-14T11:12:52.352Z,21.38
2023-05-14T11:15:26.159Z,21.48
2023-05-14T11:17:54.464Z,21.59
2023-05-14T11:20:22.714Z,21.53
2023-05-14T11:22:53.688Z,21.48
2023-05-14T11:25:22.970Z,21.44
2023-05-14T11:27:50.950Z,21.51
2023-05-14T11:30:20.552Z,21.65
2023-05-14T11:32:50.129Z,21.75
2023-05-14T11:35:18.736Z,21.86
2023-05-14T11:37:52.532Z,21.96
2023-05-14T11:40:20.805Z,22.14
2023-05-14T11:42:52.556Z,22.30
2023-05-14T11:45:30.027Z,22.36
2023-05-14T11:47:58.141Z,22.28
2023-05-14T11:50:26.261Z,22.16
2023-05-14T11:52:57.326Z,22.09
2023-05-14T11:55:25.378Z,22.08
2023-05-14T11:57:53.964Z,22.13
2023-05-14T12:00:23.261Z,22.25
2023-05-14T12:02:51.771Z,22.44
2023-05-14T12:05:19.810Z,22.62
2023-05-14T12:07:47.883Z,22.74
2023-05-14T12:10:15.852Z,22.84
2023-05-14T12:12:47.571Z,22.86
2023-05-14T12:15:17.107Z,22.95
2023-05-14T12:17:54.125Z,22.94
2023-05-14T12:20:23.787Z,23.03
2023-05-14T12:22:52.017Z,23.09
2023-05-14T12:25:19.934Z,23.17
2023-05-14T12:27:47.816Z,23.22
2023-05-14T12:30:21.874Z,23.32
2023-05-14T12:32:53.037Z,23.40
2023-05-14T12:35:23.049Z,23.42
2023-05-14T12:37:51.296Z,23.50
2023-05-14T12:40:19.369Z,23.56
2023-05-14T12:42:47.247Z,23.59
2023-05-14T12:45:15.264Z,23.63
2023-05-14T12:47:43.248Z,23.59
2023-05-14T12:50:11.435Z,23.55
2023-05-14T12:52:40.093Z,23.51
2023-05-14T12:55:09.651Z,23.52
2023-05-14T12:57:39.303Z,23.43
2023-05-14T13:00:12.904Z,23.42
2023-05-14T13:02:43.689Z,23.23
2023-05-14T13:05:12.875Z,23.00
2023-05-14T13:07:41.454Z,22.94
2023-05-14T13:10:10.020Z,22.76
2023-05-14T13:12:38.788Z,22.60
2023-05-14T13:15:07.305Z,22.57
2023-05-14T13:17:36.355Z,22.54
2023-05-14T13:20:04.900Z,22.47
2023-05-14T13:22:32.854Z,22.47
2023-05-14T13:25:00.798Z,22.51
2023-05-14T13:27:30.513Z,22.47
2023-05-14T13:29:58.492Z,22.45
2023-05-14T13:32:26.405Z,22.36
2023-05-14T13:34:54.372Z,22.18
2023-05-14T13:37:22.401Z,22.10
2023-05-14T13:39:51.531Z,22.11
2023-05-14T13:42:19.928Z,22.15
2023-05-14T13:44:47.823Z,22.14
2023-05-14T13:47:15.843Z,22.12
2023-05-14T13:49:43.734Z,21.95
2023-05-14T13:52:11.702Z,21.84
2023-05-14T13:54:39.586Z,21.83
2023-05-14T13:57:07.565Z,21.88
2023-05-14T13:59:35.924Z,21.95
2023-05-14T14:02:04.838Z,21.88
2023-05-14T14:04:32.857Z,21.82
2023-05-14T14:07:00.728Z,21.78
2023-05-14T14:09:28.622Z,21.75
2023-05-14T14:11:56.521Z,21.72
2023-05-14T14:14:24.577Z,21.64
2023-05-14T14:16:52.482Z,21.65
2023-05-14T14:19:20.767Z,21.62
2023-05-14T14:24:21.635Z,21.34
2023-05-14T14:26:49.537Z,21.20
2023-05-14T14:29:17.481Z,21.09
2023-05-14T14:31:45.550Z,20.93
2023-05-14T14:34:13.514Z,20.84
2023-05-14T14:36:41.446Z,20.75
2023-05-14T14:39:09.333Z,20.64
2023-05-14T14:41:37.240Z,20.51
2023-05-14T14:44:05.677Z,20.39
2023-05-14T14:46:33.737Z,20.30
2023-05-14T14:49:01.622Z,20.23
2023-05-14T14:51:30.378Z,20.13
2023-05-14T14:53:58.274Z,20.05
2023-05-14T14:56:27.173Z,19.98
2023-05-14T14:58:55.140Z,19.93
2023-05-14T15:01:23.104Z,19.88
2023-05-14T15:03:51.314Z,19.85
2023-05-14T15:06:19.666Z,19.80
2023-05-14T15:08:47.555Z,19.70
2023-05-14T15:11:15.531Z,19.66
2023-05-14T15:13:43.494Z,19.63
2023-05-14T15:16:12.564Z,19.55
2023-05-14T15:18:40.730Z,19.49
2023-05-14T15:21:08.769Z,19.43
2023-05-14T15:23:36.809Z,19.37
2023-05-14T15:26:04.854Z,19.31
2023-05-14T15:28:32.746Z,19.24
2023-05-14T15:31:02.527Z,19.17
2023-05-14T15:33:30.703Z,19.13
2023-05-14T15:35:58.667Z,19.10
2023-05-14T15:38:26.550Z,19.09
2023-05-14T15:40:54.484Z,19.03
2023-05-14T15:43:22.424Z,18.98
2023-05-14T15:45:50.544Z,18.93
2023-05-14T15:48:18.462Z,18.87
2023-05-14T15:50:49.679Z,18.84
2023-05-14T15:53:18.115Z,18.80
2023-05-14T15:55:48.725Z,18.76
2023-05-14T15:58:16.628Z,18.68
2023-05-14T16:00:44.582Z,18.63
2023-05-14T16:03:12.573Z,18.56
2023-05-14T16:05:42.801Z,18.52
2023-05-14T16:08:11.143Z,18.49
2023-05-14T16:10:39.182Z,18.43
2023-05-14T16:13:07.184Z,18.37
2023-05-14T16:15:35.260Z,18.34
2023-05-14T16:18:03.201Z,18.30
2023-05-14T16:20:31.099Z,18.26
2023-05-14T16:22:58.959Z,18.24
2023-05-14T16:25:26.865Z,18.23
2023-05-14T16:27:54.735Z,18.20
2023-05-14T16:30:22.833Z,18.17
2023-05-14T16:32:50.941Z,18.15
2023-05-14T16:35:18.941Z,18.14
2023-05-14T16:37:46.923Z,18.12
2023-05-14T16:40:16.252Z,18.08
2023-05-14T16:42:45.032Z,18.04
2023-05-14T16:45:13.952Z,18.01
2023-05-14T16:47:42.089Z,17.97
2023-05-14T16:50:10.461Z,17.94
2023-05-14T16:52:38.343Z,17.90
2023-05-14T16:55:06.716Z,17.86
2023-05-14T16:57:35.315Z,17.84
2023-05-14T17:00:06.230Z,17.81
2023-05-14T17:02:34.407Z,17.76
2023-05-14T17:05:02.493Z,17.71
2023-05-14T17:07:31.569Z,17.66
2023-05-14T17:10:02.110Z,17.61
2023-05-14T17:12:30.245Z,17.58
2023-05-14T17:14:58.299Z,17.55
2023-05-14T17:17:31.647Z,17.53
2023-05-14T17:20:00.413Z,17.49
2023-05-14T17:22:28.899Z,17.47
2023-05-14T17:24:56.863Z,17.42
2023-05-14T17:27:24.768Z,17.40
2023-05-14T17:29:52.686Z,17.37
2023-05-14T17:32:20.713Z,17.30
2023-05-14T17:34:48.745Z,17.24
2023-05-14T17:37:16.730Z,17.17
2023-05-14T17:39:44.760Z,17.09
2023-05-14T17:42:12.752Z,16.95
2023-05-14T17:44:40.693Z,16.80
2023-05-14T17:47:09.288Z,16.68
2023-05-14T17:49:37.440Z,16.58
2023-05-14T17:52:05.782Z,16.47
2023-05-14T17:54:33.937Z,16.38
2023-05-14T17:57:02.053Z,16.26
2023-05-14T17:59:29.958Z,16.16
2023-05-14T18:01:57.861Z,16.04
2023-05-14T18:04:25.776Z,15.97
2023-05-14T18:06:53.715Z,15.87
2023-05-14T18:09:21.869Z,15.79
2023-05-14T18:11:50.316Z,15.68
2023-05-14T18:14:18.732Z,15.54
2023-05-14T18:16:46.862Z,15.39
2023-05-14T18:19:15.221Z,15.29
2023-05-14T18:21:43.530Z,15.21
2023-05-14T18:24:11.599Z,15.13
2023-05-14T18:26:39.774Z,15.02
2023-05-14T18:29:07.714Z,14.95
2023-05-14T18:31:35.689Z,14.91
2023-05-14T18:34:03.879Z,14.86
2023-05-14T18:36:31.970Z,14.80
2023-05-14T18:39:00.024Z,14.75
2023-05-14T18:41:28.088Z,14.68
2023-05-14T18:43:58.192Z,14.59
2023-05-14T18:46:26.811Z,14.50
2023-05-14T18:48:56.339Z,14.43
2023-05-14T18:51:24.621Z,14.33
2023-05-14T18:53:52.560Z,14.17
2023-05-14T18:56:21.359Z,13.98
2023-05-14T18:58:49.287Z,13.89
2023-05-14T19:01:17.375Z,13.84
2023-05-14T19:03:46.008Z,13.79
2023-05-14T19:06:14.280Z,13.75
2023-05-14T19:08:42.899Z,13.68
2023-05-14T19:11:10.972Z,13.60
2023-05-14T19:13:39.010Z,13.53
2023-05-14T19:16:07.173Z,13.49
2023-05-14T19:18:35.397Z,13.48
2023-05-14T19:21:03.437Z,13.45
2023-05-14T19:23:32.794Z,13.38
2023-05-14T19:26:01.734Z,13.32
2023-05-14T19:28:29.972Z,13.28
2023-05-14T19:30:58.075Z,13.26
2023-05-14T19:33:26.164Z,13.22
2023-05-14T19:35:54.094Z,13.16
2023-05-14T19:38:22.331Z,13.15
2023-05-14T19:40:51.244Z,13.14
2023-05-14T19:43:20.159Z,13.12
2023-05-14T19:45:48.409Z,13.08
2023-05-14T19:48:19.222Z,13.10
2023-05-14T19:50:47.428Z,13.10
2023-05-14T19:53:15.858Z,13.11
2023-05-14T19:55:43.947Z,13.15
2023-05-14T19:58:12.619Z,13.19
2023-05-14T20:00:40.817Z,13.23
2023-05-14T20:03:10.186Z,13.22
2023-05-14T20:05:39.017Z,13.20
2023-05-14T20:08:08.308Z,13.19
2023-05-14T20:10:39.004Z,13.13
2023-05-14T20:13:11.238Z,13.08
2023-05-14T20:15:43.176Z,13.02
2023-05-14T20:18:14.412Z,12.98
2023-05-14T20:20:43.072Z,12.97
2023-05-14T20:23:11.312Z,12.95
2023-05-14T20:25:39.721Z,12.96
2023-05-14T20:28:10.909Z,12.96
2023-05-14T20:30:42.658Z,12.94
2023-05-14T20:33:15.307Z,12.90
2023-05-14T20:35:48.501Z,12.86
2023-05-14T20:38:18.606Z,12.80
2023-05-14T20:40:49.924Z,12.74
2023-05-14T20:43:18.561Z,12.66
2023-05-14T20:45:46.614Z,12.61
2023-05-14T20:48:18.814Z,12.55
2023-05-14T20:50:49.431Z,12.49
2023-05-14T20:53:17.690Z,12.44
2023-05-14T20:55:45.815Z,12.38
2023-05-14T20:58:13.920Z,12.36
2023-05-14T21:00:43.431Z,12.34
2023-05-14T21:03:11.554Z,12.30
2023-05-14T21:05:41.732Z,12.28
2023-05-14T21:08:09.900Z,12.25
2023-05-14T21:10:37.866Z,12.21
2023-05-14T21:13:07.305Z,12.17
2023-05-14T21:15:35.900Z,12.16
2023-05-14T21:18:04.389Z,12.14
2023-05-14T21:20:32.482Z,12.12
2023-05-14T21:23:00.473Z,12.08
2023-05-14T21:25:30.513Z,12.09
2023-05-14T21:27:58.683Z,12.10
2023-05-14T21:30:26.616Z,12.07
2023-05-14T21:32:54.598Z,12.07
2023-05-14T21:35:23.297Z,12.05
2023-05-14T21:37:51.483Z,12.06
2023-05-14T21:40:19.945Z,12.08
2023-05-14T21:42:48.298Z,12.08
2023-05-14T21:45:16.460Z,12.11
2023-05-14T21:47:44.803Z,12.11
2023-05-14T21:50:13.899Z,12.07
2023-05-14T21:52:41.803Z,12.09
2023-05-14T21:55:10.606Z,12.09
2023-05-14T21:57:38.861Z,12.07
2023-05-14T22:00:13.280Z,12.03
2023-05-14T22:02:42.957Z,12.01
2023-05-14T22:05:11.085Z,12.00
2023-05-14T22:07:39.223Z,12.00
2023-05-14T22:10:07.556Z,12.00
2023-05-14T22:12:35.600Z,12.00
2023-05-14T22:15:06.876Z,12.01
2023-05-14T22:17:35.046Z,12.00
2023-05-14T22:20:05.847Z,12.01
2023-05-14T22:22:34.532Z,12.03
2023-05-14T22:25:03.622Z,12.04
2023-05-14T22:27:32.476Z,12.03
2023-05-14T22:30:00.664Z,12.02
2023-05-14T22:32:28.811Z,12.02
2023-05-14T22:34:57.382Z,12.02
2023-05-14T22:37:26.483Z,12.05
2023-05-14T22:39:54.566Z,12.08
2023-05-14T22:42:22.699Z,12.09
2023-05-14T22:44:50.950Z,12.08
2023-05-14T22:47:18.897Z,12.06
2023-05-14T22:49:46.949Z,12.08
2023-05-14T22:52:14.879Z,12.11
2023-05-14T22:54:43.183Z,12.14
2023-05-14T22:57:11.317Z,12.16
2023-05-14T22:59:39.729Z,12.19
2023-05-14T23:02:07.718Z,12.17
2023-05-14T23:04:35.965Z,12.17
2023-05-14T23:07:03.998Z,12.18
2023-05-14T23:09:31.877Z,12.20
2023-05-14T23:11:59.779Z,12.21
2023-05-14T23:14:27.692Z,12.22
2023-05-14T23:16:55.696Z,12.22
2023-05-14T23:19:23.748Z,12.19
2023-05-14T23:21:51.648Z,12.17
2023-05-14T23:24:19.498Z,12.18
2023-05-14T23:26:47.409Z,12.16
2023-05-14T23:29:15.347Z,12.15
2023-05-14T23:31:43.836Z,12.12
2023-05-14T23:34:11.816Z,12.07
2023-05-14T23:36:40.573Z,12.03
2023-05-14T23:39:08.450Z,11.99
2023-05-14T23:41:36.467Z,11.96
2023-05-14T23:44:04.607Z,11.94
2023-05-14T23:46:32.882Z,11.94
2023-05-14T23:49:01.110Z,11.93
2023-05-14T23:51:29.018Z,11.88
2023-05-14T23:53:58.729Z,11.86
2023-05-14T23:56:29.376Z,11.85
2023-05-14T23:58:57.365Z,11.83
